Time;durP1;ratioP1;P1;durP2;ratioP2;P2;SDS_P1;SDS_P2;PMS_P1;PMS_P2;Temp;Humidity;BMP_temperature;BMP_pressure;BME280_temperature;BME280_humidity;BME280_pressure;Samples;Min_cycle;Max_cycle;Signal;HPM_P1;HPM_P2
2023/10/12 02:01:33;;;;;;;8.50;6.77;;;;;;;10.65;100.00;99461.31;6200100;23;20213;-86
2023/10/12 02:39:20;;;;;;;9.23;6.10;;;;;;;10.10;100.00;99455.09;6178850;23;20179;-85
2023/10/12 02:53:34;;;;;;;7.40;6.03;;;;;;;9.99;100.00;99470.00;6166559;23;20218;-85
2023/10/12 03:03:07;;;;;;;9.53;5.83;;;;;;;9.90;100.00;99457.94;6187488;23;20218;-85
2023/10/12 04:37:31;;;;;;;9.37;6.13;;;;;;;8.75;100.00;99458.28;6164407;23;20241;-86
2023/10/12 06:24:37;;;;;;;7.70;6.00;;;;;;;10.88;100.00;99517.72;6176412;23;20214;-86
2023/10/12 06:27:22;;;;;;;8.10;7.23;;;;;;;11.09;100.00;99521.81;6160743;23;20600;-86
2023/10/12 06:30:03;;;;;;;7.60;7.00;;;;;;;11.23;100.00;99525.97;6134818;23;20178;-88
2023/10/12 06:32:50;;;;;;;7.70;6.97;;;;;;;11.38;100.00;99529.06;6163488;23;20202;-86
2023/10/12 07:03:08;;;;;;;7.33;6.70;;;;;;;12.40;100.00;99542.41;6212697;23;20186;-86
2023/10/12 07:06:22;;;;;;;7.90;6.93;;;;;;;12.37;100.00;99540.97;6191640;23;20140;-86
2023/10/12 08:11:55;;;;;;;7.07;6.37;;;;;;;15.20;100.00;99556.91;6130019;23;20643;-91
2023/10/12 08:19:39;;;;;;;7.70;6.10;;;;;;;15.34;100.00;99544.66;6154356;23;20242;-91
2023/10/12 08:25:04;;;;;;;7.73;6.40;;;;;;;15.54;100.00;99543.28;6135226;23;20610;-91
2023/10/12 08:27:54;;;;;;;7.00;6.30;;;;;;;15.66;100.00;99541.25;6131051;23;20167;-91
2023/10/12 08:30:24;;;;;;;6.83;5.90;;;;;;;15.70;100.00;99540.47;6130470;23;20610;-91
2023/10/12 08:32:58;;;;;;;7.30;6.40;;;;;;;15.77;100.00;99538.38;6107606;23;20178;-91
2023/10/12 08:35:36;;;;;;;7.10;6.37;;;;;;;15.89;100.00;99532.00;6106820;23;20159;-91
2023/10/12 08:38:12;;;;;;;7.07;5.67;;;;;;;16.02;100.00;99534.28;6108763;23;20178;-91
2023/10/12 08:41:36;;;;;;;7.87;6.00;;;;;;;16.15;100.00;99556.28;6108082;23;20171;-91
2023/10/12 08:43:44;;;;;;;6.47;5.87;;;;;;;16.09;100.00;99549.22;6117045;23;20178;-91
2023/10/12 08:46:13;;;;;;;6.63;6.00;;;;;;;16.12;100.00;99543.31;6130397;23;20167;-91
2023/10/12 08:48:53;;;;;;;6.27;5.67;;;;;;;16.07;100.00;99545.16;6106584;23;20221;-91
2023/10/12 08:51:29;;;;;;;6.50;5.60;;;;;;;16.08;100.00;99541.38;6132909;23;20241;-90
2023/10/12 08:54:07;;;;;;;6.90;5.90;;;;;;;16.15;100.00;99544.66;6109361;23;20198;-91
2023/10/12 08:56:39;;;;;;;6.90;5.97;;;;;;;16.17;100.00;99545.22;6131015;23;20163;-90
2023/10/12 08:59:10;;;;;;;6.67;5.63;;;;;;;16.22;100.00;99546.09;6130370;23;20183;-91
2023/10/12 09:01:43;;;;;;;5.97;5.37;;;;;;;16.28;100.00;99550.44;6131121;23;20487;-90
2023/10/12 09:04:13;;;;;;;7.90;6.17;;;;;;;16.42;100.00;99550.03;6130534;23;20250;-91
2023/10/12 09:09:25;;;;;;;6.73;5.93;;;;;;;16.57;100.00;99536.59;6153620;23;20708;-91
2023/10/12 09:11:59;;;;;;;6.60;6.00;;;;;;;16.63;100.00;99532.88;6154285;23;20206;-91
2023/10/12 09:14:32;;;;;;;7.87;6.00;;;;;;;16.78;100.00;99535.69;6131159;23;20167;-90
2023/10/12 09:17:04;;;;;;;6.37;5.70;;;;;;;16.92;100.00;99541.44;6130396;23;20170;-90
2023/10/12 09:19:34;;;;;;;7.63;6.10;;;;;;;17.02;100.00;99541.50;6106228;23;20611;-91
2023/10/12 09:22:07;;;;;;;6.30;5.70;;;;;;;17.19;100.00;99539.41;6130647;23;20207;-91
2023/10/12 09:24:36;;;;;;;7.40;5.90;;;;;;;17.34;100.00;99536.75;6131009;23;20169;-90
2023/10/12 09:27:14;;;;;;;8.17;5.77;;;;;;;17.47;100.00;99543.56;6130176;23;20176;-90
2023/10/12 09:29:55;;;;;;;7.43;5.73;;;;;;;17.57;100.00;99546.28;6107459;23;20278;-90
2023/10/12 09:32:27;;;;;;;7.63;6.17;;;;;;;17.68;100.00;99544.47;6112858;23;20158;-91
2023/10/12 09:35:11;;;;;;;6.73;6.03;;;;;;;17.78;100.00;99541.75;6107682;23;20176;-90
2023/10/12 09:37:46;;;;;;;7.67;5.90;;;;;;;17.92;100.00;99546.38;6156187;23;20173;-90
2023/10/12 09:40:39;;;;;;;6.50;5.73;;;;;;;18.03;100.00;99536.38;6133929;23;20177;-90
2023/10/12 09:43:12;;;;;;;7.20;5.87;;;;;;;18.13;100.00;99541.81;6131730;23;20622;-90
2023/10/12 09:45:45;;;;;;;6.00;5.50;;;;;;;18.30;100.00;99545.03;6109075;23;20256;-90
2023/10/12 09:48:24;;;;;;;8.07;5.87;;;;;;;18.41;100.00;99549.38;6108181;23;20189;-90
2023/10/12 09:50:55;;;;;;;6.50;5.63;;;;;;;18.42;100.00;99550.19;6110106;23;20638;-90
2023/10/12 09:53:36;;;;;;;7.10;6.20;;;;;;;18.55;100.00;99546.16;6131666;23;20173;-90
2023/10/12 09:56:15;;;;;;;6.80;5.50;;;;;;;18.71;100.00;99534.97;6133498;23;20172;-90
2023/10/12 09:58:51;;;;;;;9.53;6.13;;;;;;;18.87;100.00;99531.16;6155262;23;20192;-90
2023/10/12 10:01:36;;;;;;;7.87;6.40;;;;;;;19.03;100.00;99522.97;6155387;23;20198;-90
2023/10/12 10:09:57;;;;;;;9.50;6.73;;;;;;;19.54;100.00;99518.13;6183793;23;20202;-89
2023/10/12 10:12:28;;;;;;;7.93;6.50;;;;;;;19.65;100.00;99522.38;6135994;23;20254;-89
2023/10/12 10:15:00;;;;;;;7.43;6.73;;;;;;;19.76;100.00;99523.97;6161016;23;20252;-89
2023/10/12 10:17:36;;;;;;;7.00;6.30;;;;;;;19.87;100.00;99520.09;6114035;23;20177;-89
2023/10/12 10:23:12;;;;;;;9.37;6.50;;;;;;;20.02;100.00;99509.06;6139342;23;20163;-89
2023/10/12 10:25:45;;;;;;;7.63;6.93;;;;;;;20.13;100.00;99510.63;6113554;23;20179;-89
2023/10/12 10:28:26;;;;;;;8.47;6.70;;;;;;;20.12;100.00;99498.13;6136925;23;20191;-89
2023/10/12 10:30:59;;;;;;;7.73;6.47;;;;;;;20.16;100.00;99495.63;6136257;23;20169;-88
2023/10/12 10:33:29;;;;;;;7.30;6.40;;;;;;;20.26;100.00;99498.28;6137276;23;20152;-89
2023/10/12 10:36:09;;;;;;;7.50;6.15;;;;;;;20.39;100.00;99499.56;6160461;23;20166;-89
2023/10/12 10:41:23;;;;;;;7.15;5.90;;;;;;;20.74;100.00;99482.03;6163363;23;20238;-89
2023/10/12 10:43:55;;;;;;;12.25;6.18;;;;;;;20.86;100.00;99483.25;6112369;23;20164;-89
2023/10/12 10:46:26;;;;;;;6.32;5.68;;;;;;;20.91;100.00;99475.00;6160428;23;20225;-89
2023/10/12 10:48:56;;;;;;;6.60;5.70;;;;;;;20.98;100.00;99470.03;6136409;23;20224;-89
2023/10/12 10:51:48;;;;;;;6.95;6.00;;;;;;;21.12;100.00;99470.13;6119537;23;20220;-88
2023/10/12 10:54:20;;;;;;;8.15;5.50;;;;;;;21.28;100.00;99476.19;6135483;23;20170;-89
2023/10/12 10:56:49;;;;;;;5.80;5.18;;;;;;;21.47;100.00;99466.94;6111871;23;20158;-89
2023/10/12 10:59:21;;;;;;;6.38;5.63;;;;;;;21.63;100.00;99474.91;6160907;23;20186;-88
2023/10/12 11:01:52;;;;;;;8.23;6.22;;;;;;;21.70;100.00;99478.03;6135721;23;20175;-88
2023/10/12 11:04:46;;;;;;;8.10;6.03;;;;;;;21.82;100.00;99473.78;6112251;23;20176;-89
2023/10/12 11:07:20;;;;;;;9.20;6.20;;;;;;;21.97;100.00;99467.31;6166028;23;20256;-89
2023/10/12 11:12:23;;;;;;;7.22;6.35;;;;;;;22.08;100.00;99463.28;6155170;23;20230;-88
2023/10/12 11:15:11;;;;;;;7.40;5.80;;;;;;;22.13;100.00;99460.47;6154245;23;20179;-88
2023/10/12 11:17:56;;;;;;;7.97;5.63;;;;;;;22.21;100.00;99456.25;6133679;23;20258;-88
2023/10/12 11:20:38;;;;;;;6.97;5.82;;;;;;;22.30;100.00;99447.03;6110086;23;20156;-88
2023/10/12 11:23:07;;;;;;;9.43;5.68;;;;;;;22.52;100.00;99435.47;6130426;23;20221;-88
2023/10/12 11:25:41;;;;;;;7.80;6.40;;;;;;;22.62;100.00;99432.53;6131204;23;20148;-88
2023/10/12 11:28:23;;;;;;;7.38;5.80;;;;;;;22.65;100.00;99421.00;6130358;23;20561;-88
2023/10/12 11:31:03;;;;;;;6.35;5.78;;;;;;;22.74;100.00;99411.00;6154519;23;20186;-87
2023/10/12 11:33:36;;;;;;;7.90;6.35;;;;;;;22.80;100.00;99406.25;6133621;23;20164;-88
2023/10/12 11:36:09;;;;;;;8.55;5.53;;;;;;;22.82;100.00;99412.22;6154099;23;20174;-87
2023/10/12 11:38:43;;;;;;;6.05;5.43;;;;;;;22.86;100.00;99415.16;6154193;23;20179;-88
2023/10/12 11:41:14;;;;;;;8.40;5.95;;;;;;;22.85;100.00;99408.88;6129999;23;20202;-88
2023/10/12 11:43:52;;;;;;;7.43;5.50;;;;;;;22.85;100.00;99403.44;6108336;23;20221;-88
2023/10/12 11:46:24;;;;;;;7.80;5.78;;;;;;;22.99;100.00;99409.69;6131648;23;20195;-88
2023/10/12 11:49:08;;;;;;;11.80;7.10;;;;;;;23.11;100.00;99412.69;6129238;23;20171;-88
2023/10/12 11:51:57;;;;;;;9.20;6.70;;;;;;;23.22;100.00;99416.81;6130273;23;20266;-88
2023/10/12 11:54:32;;;;;;;11.27;6.63;;;;;;;23.31;100.00;99418.81;6133921;23;20177;-88
2023/10/12 11:57:04;;;;;;;8.88;6.40;;;;;;;23.41;100.00;99416.66;6132085;23;20159;-88
2023/10/12 11:59:35;;;;;;;9.90;6.72;;;;;;;23.47;100.00;99418.16;6129061;23;20678;-87
2023/10/12 12:02:16;;;;;;;6.70;6.00;;;;;;;23.57;100.00;99414.38;6131152;23;20164;-88
2023/10/12 12:04:44;;;;;;;8.60;6.32;;;;;;;23.67;100.00;99422.34;6153792;23;20166;-88
2023/10/12 12:07:33;;;;;;;8.65;6.20;;;;;;;23.75;100.00;99396.97;6113596;23;20165;-87
2023/10/12 12:10:03;;;;;;;8.95;6.38;;;;;;;23.86;100.00;99400.28;6153403;23;20285;-87
2023/10/12 12:12:32;;;;;;;9.98;6.15;;;;;;;24.01;100.00;99399.88;6153913;23;20543;-87
2023/10/12 12:15:00;;;;;;;6.95;6.07;;;;;;;24.07;100.00;99391.25;6130028;23;20574;-87
2023/10/12 12:17:27;;;;;;;6.85;6.15;;;;;;;24.27;100.00;99386.34;6105415;23;20174;-87
2023/10/12 12:19:54;;;;;;;8.10;5.53;;;;;;;24.38;100.00;99390.44;6129177;23;20527;-87
2023/10/12 12:22:42;;;;;;;6.70;5.70;;;;;;;24.54;100.00;99397.13;6108185;23;20175;-87
2023/10/12 12:25:59;;;;;;;7.72;5.90;;;;;;;24.78;100.00;99389.25;6107931;23;20167;-87
2023/10/12 12:28:04;;;;;;;6.82;5.70;;;;;;;24.99;100.00;99390.31;6123954;23;20255;-87
2023/10/12 12:30:45;;;;;;;8.90;5.57;;;;;;;25.11;100.00;99383.38;6130490;23;20187;-87
2023/10/12 12:33:28;;;;;;;7.25;5.18;;;;;;;25.32;100.00;99398.91;6111707;23;20614;-87
2023/10/12 12:36:00;;;;;;;7.20;5.22;;;;;;;25.40;100.00;99398.09;6153852;23;20163;-88
2023/10/12 12:41:06;;;;;;;6.97;5.10;;;;;;;25.84;100.00;99405.19;6130817;23;20182;-87
2023/10/12 12:43:36;;;;;;;5.53;5.03;;;;;;;26.02;100.00;99405.94;6130159;23;20170;-87
2023/10/12 12:46:05;;;;;;;6.28;4.75;;;;;;;26.05;100.00;99412.72;6105225;23;20174;-87
2023/10/12 12:48:45;;;;;;;6.53;4.63;;;;;;;25.90;100.00;99410.50;6131616;23;20167;-87
2023/10/12 12:51:15;;;;;;;7.90;5.13;;;;;;;25.65;100.00;99406.66;6153623;23;20257;-88
2023/10/12 12:53:50;;;;;;;6.15;5.00;;;;;;;25.63;100.00;99403.41;6129726;23;20640;-88
2023/10/12 12:56:21;;;;;;;6.82;4.93;;;;;;;25.53;100.00;99403.72;6105206;23;20185;-87
2023/10/12 12:58:51;;;;;;;6.53;5.30;;;;;;;25.57;100.00;99397.28;6152638;23;20226;-87
2023/10/12 13:01:26;;;;;;;6.53;5.00;;;;;;;25.59;100.00;99395.03;6153897;23;20248;-87
2023/10/12 13:03:56;;;;;;;6.05;4.55;;;;;;;25.64;100.00;99385.84;6130294;23;20171;-87
2023/10/12 13:06:26;;;;;;;7.05;5.25;;;;;;;25.60;100.00;99387.63;6128399;23;20175;-87
2023/10/12 13:08:55;;;;;;;9.15;4.70;;;;;;;25.55;100.00;99393.28;6142028;23;20198;-87
2023/10/12 13:11:28;;;;;;;6.45;4.82;;;;;;;25.63;100.00;99400.69;6135309;23;20190;-87
2023/10/12 13:14:10;;;;;;;7.93;4.82;;;;;;;25.67;100.00;99404.38;6138230;23;20163;-87
2023/10/12 13:16:45;;;;;;;6.85;4.68;;;;;;;25.65;100.00;99407.47;6138779;23;20171;-87
2023/10/12 13:19:17;;;;;;;7.70;4.97;;;;;;;25.68;100.00;99389.53;6159541;23;20186;-87
2023/10/12 13:21:49;;;;;;;4.82;4.28;;;;;;;25.59;100.00;99392.28;6136049;23;20174;-87
2023/10/12 13:24:20;;;;;;;8.13;4.93;;;;;;;25.56;100.00;99387.47;6158158;23;20174;-87
2023/10/12 13:26:49;;;;;;;5.68;4.47;;;;;;;25.43;100.00;99393.88;6111820;23;20475;-87
2023/10/12 13:29:19;;;;;;;9.93;5.38;;;;;;;25.46;100.00;99389.69;6135773;23;20174;-87
2023/10/12 13:31:47;;;;;;;5.40;4.63;;;;;;;25.50;100.00;99398.88;6160604;23;20612;-87
2023/10/12 13:34:17;;;;;;;7.55;4.63;;;;;;;25.64;100.00;99391.31;6186185;23;20166;-87
2023/10/12 13:36:48;;;;;;;7.38;4.15;;;;;;;25.70;100.00;99392.78;6137220;23;20166;-87
2023/10/12 13:39:17;;;;;;;7.60;3.92;;;;;;;25.80;96.81;99386.97;6160293;23;20170;-87
2023/10/12 13:41:44;;;;;;;8.80;4.38;;;;;;;25.75;99.08;99379.69;6135730;23;20201;-87
2023/10/12 13:44:19;;;;;;;6.05;4.15;;;;;;;25.64;96.64;99385.84;6160719;23;20155;-87
2023/10/12 13:46:48;;;;;;;7.03;4.38;;;;;;;25.72;93.17;99380.34;6137012;23;20162;-87
2023/10/12 13:49:20;;;;;;;7.13;4.38;;;;;;;25.72;94.81;99374.84;6135675;23;20173;-87
2023/10/12 13:51:48;;;;;;;11.82;3.97;;;;;;;25.82;95.54;99381.94;6112382;23;20167;-87
2023/10/12 13:54:16;;;;;;;5.78;4.45;;;;;;;25.96;92.12;99377.06;6160185;23;20197;-87
2023/10/12 13:56:55;;;;;;;8.65;4.45;;;;;;;25.97;91.95;99383.34;6161035;23;20158;-87
2023/10/12 13:59:29;;;;;;;9.05;4.35;;;;;;;25.74;94.81;99386.31;6185754;23;20929;-87
2023/10/12 14:02:05;;;;;;;4.07;3.67;;;;;;;25.75;95.51;99381.63;6112736;23;20701;-87
2023/10/12 14:04:40;;;;;;;9.90;4.55;;;;;;;25.68;96.09;99382.13;6161276;23;20147;-87
2023/10/12 14:07:16;;;;;;;7.85;4.60;;;;;;;25.51;100.00;99395.03;6136630;23;20161;-87
2023/10/12 14:09:43;;;;;;;5.38;4.63;;;;;;;25.22;100.00;99390.19;6130698;23;20205;-87
2023/10/12 14:12:11;;;;;;;7.63;5.22;;;;;;;25.22;100.00;99392.91;6107001;23;20414;-87
2023/10/12 14:14:43;;;;;;;7.60;5.05;;;;;;;25.14;100.00;99393.72;6106646;23;20172;-87
2023/10/12 14:17:11;;;;;;;7.50;4.47;;;;;;;25.04;100.00;99386.63;6106641;23;20168;-87
2023/10/12 14:19:41;;;;;;;9.07;5.22;;;;;;;24.95;100.00;99383.88;6130446;23;20171;-87
2023/10/12 14:22:08;;;;;;;6.28;5.10;;;;;;;24.84;100.00;99393.47;6156243;23;20167;-87
2023/10/12 14:24:37;;;;;;;7.03;5.00;;;;;;;24.57;100.00;99388.25;6154438;23;20175;-87
2023/10/12 14:27:10;;;;;;;6.22;4.93;;;;;;;24.44;100.00;99390.00;6131655;23;20636;-87
2023/10/12 14:29:39;;;;;;;6.43;4.97;;;;;;;24.39;100.00;99395.59;6106417;23;20179;-87
2023/10/12 14:32:14;;;;;;;7.85;5.40;;;;;;;24.35;100.00;99394.63;6107744;23;20159;-87
2023/10/12 14:34:42;;;;;;;7.82;4.78;;;;;;;24.32;100.00;99397.16;6130681;23;20171;-87
2023/10/12 14:37:19;;;;;;;7.22;5.25;;;;;;;24.33;100.00;99396.84;6106663;23;20175;-87
2023/10/12 14:39:47;;;;;;;5.65;4.47;;;;;;;24.18;100.00;99394.53;6131706;23;20171;-87
2023/10/12 14:42:21;;;;;;;6.57;5.30;;;;;;;24.12;100.00;99401.25;6154365;23;20217;-87
2023/10/12 14:44:53;;;;;;;6.57;5.10;;;;;;;24.02;100.00;99401.50;6131700;23;20617;-87
2023/10/12 14:47:21;;;;;;;5.90;4.68;;;;;;;23.88;100.00;99403.50;6154342;23;20607;-87
2023/10/12 14:49:50;;;;;;;6.22;4.60;;;;;;;23.76;100.00;99406.81;6129784;23;20178;-87
2023/10/12 14:52:17;;;;;;;7.95;5.00;;;;;;;23.69;100.00;99410.00;6130173;23;20170;-87
2023/10/12 14:54:46;;;;;;;8.32;5.00;;;;;;;23.57;100.00;99411.66;6130172;23;20166;-87
2023/10/12 14:57:16;;;;;;;8.30;4.43;;;;;;;;;;6129913;23;20167;-87
2023/10/12 14:59:50;;;;;;;9.55;4.35;;;;;;;23.50;100.00;99411.28;6154252;23;20163;-87
2023/10/12 15:02:18;;;;;;;5.93;4.90;;;;;;;23.46;100.00;99410.28;6106431;23;20174;-88
2023/10/12 15:04:51;;;;;;;16.73;5.85;;;;;;;23.37;100.00;99401.19;6154628;23;20154;-87
2023/10/12 15:07:19;;;;;;;11.27;5.18;;;;;;;23.25;100.00;99399.78;6106274;23;20213;-87
2023/10/12 15:09:50;;;;;;;9.40;4.97;;;;;;;23.21;100.00;99407.00;6135232;23;20255;-87
2023/10/12 15:12:27;;;;;;;20.35;6.18;;;;;;;23.18;100.00;99402.16;6135571;23;20170;-87
2023/10/12 15:15:00;;;;;;;10.18;5.10;;;;;;;23.12;100.00;99406.09;6159713;23;20647;-86
2023/10/12 15:17:30;;;;;;;13.43;4.82;;;;;;;23.03;100.00;99404.41;6159253;23;20174;-87
2023/10/12 15:20:12;;;;;;;10.55;5.00;;;;;;;22.90;100.00;99402.50;6161472;23;20161;-87
2023/10/12 15:22:45;;;;;;;6.70;4.30;;;;;;;22.81;100.00;99403.22;6136147;23;20612;-87
2023/10/12 15:25:16;;;;;;;7.20;4.22;;;;;;;22.72;100.00;99404.25;6134990;23;20280;-87
2023/10/12 15:27:50;;;;;;;6.60;4.03;;;;;;;22.61;100.00;99416.44;6135081;23;20190;-87
2023/10/12 15:30:18;;;;;;;7.85;4.57;;;;;;;22.48;100.00;99417.25;6135640;23;20194;-87
2023/10/12 15:32:46;;;;;;;9.70;4.63;;;;;;;22.34;100.00;99420.00;6134459;23;20195;-86
2023/10/12 15:35:25;;;;;;;6.05;4.45;;;;;;;22.16;100.00;99429.06;6134924;23;20162;-87
2023/10/12 15:37:57;;;;;;;6.25;4.50;;;;;;;21.97;100.00;99426.38;6112315;23;20201;-87
2023/10/12 15:40:25;;;;;;;4.93;4.30;;;;;;;21.85;100.00;99428.72;6159240;23;20163;-88
2023/10/12 15:43:05;;;;;;;6.68;3.80;;;;;;;21.68;100.00;99432.00;6135403;23;20181;-88
2023/10/12 15:45:38;;;;;;;5.60;4.22;;;;;;;21.51;100.00;99434.44;6133927;23;20201;-87
2023/10/12 15:48:09;;;;;;;5.13;4.30;;;;;;;21.37;100.00;99434.38;6112155;23;20167;-87
2023/10/12 15:50:37;;;;;;;7.28;4.35;;;;;;;21.25;100.00;99433.22;6135228;23;20272;-87
2023/10/12 15:53:06;;;;;;;8.82;4.22;;;;;;;21.08;100.00;99428.25;6110117;23;20177;-87
2023/10/12 15:55:43;;;;;;;6.80;4.18;;;;;;;21.01;100.00;99425.06;6159489;23;20162;-88
2023/10/12 15:58:14;;;;;;;7.63;4.50;;;;;;;20.87;100.00;99421.44;6135383;23;20154;-88
2023/10/12 16:00:42;;;;;;;5.53;3.80;;;;;;;20.74;100.00;99425.69;6134726;23;20169;-87
2023/10/12 16:03:10;;;;;;;6.38;4.28;;;;;;;20.58;100.00;99419.59;6110378;23;20222;-88
2023/10/12 16:05:42;;;;;;;6.20;4.20;;;;;;;20.44;100.00;99415.13;6158890;23;20174;-88
2023/10/12 16:08:12;;;;;;;6.30;4.45;;;;;;;20.32;100.00;99420.16;6134333;23;20679;-88
2023/10/12 16:10:46;;;;;;;8.15;4.57;;;;;;;20.17;100.00;99421.91;6158542;23;20190;-88
2023/10/12 16:13:17;;;;;;;5.50;3.88;;;;;;;20.00;100.00;99434.34;6134759;23;20167;-88
2023/10/12 16:15:49;;;;;;;5.63;4.05;;;;;;;19.83;100.00;99426.56;6134589;23;20166;-88
2023/10/12 16:18:24;;;;;;;6.78;4.03;;;;;;;19.66;100.00;99431.63;6159538;23;20179;-88
2023/10/12 16:20:53;;;;;;;7.53;3.95;;;;;;;19.54;100.00;99436.63;6159511;23;20182;-88
2023/10/12 16:23:26;;;;;;;6.32;4.20;;;;;;;19.39;100.00;99439.41;6158823;23;20178;-88
2023/10/12 16:25:56;;;;;;;6.43;3.92;;;;;;;19.29;100.00;99429.41;6160297;23;20148;-88
2023/10/12 16:28:24;;;;;;;9.13;4.20;;;;;;;19.23;100.00;99428.63;6185071;23;20253;-88
2023/10/12 16:30:55;;;;;;;7.15;4.35;;;;;;;19.18;100.00;99431.34;6110422;23;20264;-88
2023/10/12 16:33:24;;;;;;;6.93;4.20;;;;;;;19.10;100.00;99442.81;6159532;23;20245;-88
2023/10/12 16:35:53;;;;;;;5.07;3.95;;;;;;;18.97;100.00;99443.44;6185019;23;20170;-88
2023/10/12 16:38:21;;;;;;;5.45;4.10;;;;;;;18.85;100.00;99446.44;6134768;23;20188;-88
2023/10/12 16:40:50;;;;;;;6.73;4.27;;;;;;;18.77;100.00;99451.66;6110335;23;20248;-88
2023/10/12 16:43:23;;;;;;;5.60;3.97;;;;;;;18.70;100.00;99451.97;6111483;23;20167;-88
2023/10/12 16:45:56;;;;;;;7.00;3.90;;;;;;;18.65;100.00;99448.44;6136547;23;20170;-88
2023/10/12 16:48:28;;;;;;;4.20;3.80;;;;;;;18.56;100.00;99458.25;6114696;23;20172;-88
2023/10/12 16:50:57;;;;;;;4.60;3.88;;;;;;;18.46;100.00;99451.72;6136890;23;20221;-88
2023/10/12 16:53:28;;;;;;;6.30;4.30;;;;;;;18.38;100.00;99454.97;6136445;23;20699;-88
2023/10/12 16:55:58;;;;;;;7.77;4.00;;;;;;;18.33;100.00;99456.91;6187284;23;20157;-89
2023/10/12 16:58:30;;;;;;;6.67;4.33;;;;;;;18.27;100.00;99466.94;6115059;23;20148;-89
2023/10/12 17:00:59;;;;;;;5.00;3.70;;;;;;;18.17;100.00;99460.72;6137733;23;20220;-88
2023/10/12 17:03:29;;;;;;;7.83;4.67;;;;;;;18.12;100.00;99477.81;6161440;23;20691;-89
2023/10/12 17:05:58;;;;;;;7.20;4.33;;;;;;;18.04;100.00;99473.75;6136987;23;20170;-88
2023/10/12 17:08:29;;;;;;;5.70;4.40;;;;;;;17.99;100.00;99476.47;6136836;23;20191;-88
2023/10/12 17:11:00;;;;;;;6.87;4.33;;;;;;;17.92;100.00;99481.34;6136714;23;20223;-89
2023/10/12 17:13:31;;;;;;;5.37;4.70;;;;;;;17.83;100.00;99479.44;6137099;23;20204;-89
2023/10/12 17:16:01;;;;;;;10.83;4.73;;;;;;;17.64;100.00;99483.78;6161859;23;20162;-89
2023/10/12 17:18:28;;;;;;;6.70;4.30;;;;;;;17.59;100.00;99482.66;6187220;23;20170;-89
2023/10/12 17:21:01;;;;;;;5.87;4.80;;;;;;;17.54;100.00;99492.66;6162209;23;20150;-89
2023/10/12 17:23:28;;;;;;;6.13;4.80;;;;;;;17.41;100.00;99499.38;6136493;23;20663;-89
2023/10/12 17:25:58;;;;;;;7.60;4.83;;;;;;;17.30;100.00;99496.94;6161491;23;20250;-89
2023/10/12 17:28:29;;;;;;;6.37;4.80;;;;;;;17.24;100.00;99501.50;6137403;23;20227;-89
2023/10/12 17:31:28;;;;;;;8.23;4.87;;;;;;;17.18;100.00;99502.56;6160918;23;20198;-89
2023/10/12 17:33:57;;;;;;;8.00;5.07;;;;;;;17.16;100.00;99496.63;6136758;23;20625;-89
2023/10/12 17:36:25;;;;;;;8.60;5.20;;;;;;;17.10;100.00;99493.06;6112405;23;20561;-89
2023/10/12 17:38:57;;;;;;;8.17;5.10;;;;;;;17.08;100.00;99492.50;6137295;23;20596;-90
2023/10/12 17:41:31;;;;;;;9.83;5.57;;;;;;;17.05;100.00;99495.75;6138611;23;20154;-89
2023/10/12 17:44:05;;;;;;;7.67;5.40;;;;;;;17.04;100.00;99494.13;6139455;23;20169;-89
2023/10/12 17:46:35;;;;;;;8.50;6.30;;;;;;;17.00;100.00;99500.34;6136843;23;20177;-89
2023/10/12 17:49:05;;;;;;;9.00;5.90;;;;;;;16.97;100.00;99490.88;6113080;23;20521;-89
2023/10/12 17:51:35;;;;;;;11.23;6.97;;;;;;;16.99;100.00;99496.00;6113051;23;20744;-89
2023/10/12 17:54:09;;;;;;;10.53;6.83;;;;;;;17.02;100.00;99490.88;6114413;23;20305;-89
2023/10/12 17:56:46;;;;;;;9.83;6.63;;;;;;;17.06;100.00;99494.69;6137362;23;20224;-89
2023/10/12 17:59:18;;;;;;;12.57;6.77;;;;;;;17.07;100.00;99495.50;6137434;23;20169;-89
2023/10/12 18:01:58;;;;;;;9.47;6.77;;;;;;;17.08;100.00;99494.41;6161244;23;20235;-89
2023/10/12 18:04:27;;;;;;;11.30;6.60;;;;;;;17.09;100.00;99494.16;6138726;23;20267;-89
2023/10/12 18:06:55;;;;;;;11.07;7.53;;;;;;;17.13;100.00;99494.44;6186695;23;20624;-89
2023/10/12 18:09:23;;;;;;;10.17;7.17;;;;;;;17.13;100.00;99492.53;6155286;23;22006;-89
2023/10/12 18:11:54;;;;;;;8.30;7.33;;;;;;;17.14;100.00;99498.78;6131741;23;20215;-89
2023/10/12 18:14:21;;;;;;;11.20;7.07;;;;;;;17.14;100.00;99490.66;6129763;23;20474;-89
2023/10/12 18:16:52;;;;;;;10.43;7.90;;;;;;;17.17;100.00;99499.03;6152605;23;20170;-89
2023/10/12 18:19:20;;;;;;;9.13;7.23;;;;;;;17.17;100.00;99490.91;6150506;23;20252;-89
2023/10/12 18:21:51;;;;;;;12.30;7.30;;;;;;;17.17;100.00;99488.22;6129826;23;20170;-89
2023/10/12 18:24:19;;;;;;;9.57;7.43;;;;;;;17.15;100.00;99498.50;6154434;23;20182;-89
2023/10/12 18:26:53;;;;;;;9.67;7.00;;;;;;;17.14;100.00;99498.78;6156776;23;20244;-89
2023/10/12 18:29:21;;;;;;;8.47;7.67;;;;;;;17.13;100.00;99505.25;6130963;23;20178;-88
2023/10/12 18:31:52;;;;;;;9.93;7.87;;;;;;;17.15;100.00;99503.09;6131412;23;20196;-89
2023/10/12 18:34:27;;;;;;;8.77;7.43;;;;;;;17.18;100.00;99499.84;6131272;23;20178;-89
2023/10/12 18:36:58;;;;;;;11.43;7.63;;;;;;;17.20;100.00;99502.31;6132344;23;20177;-89
2023/10/12 18:39:40;;;;;;;9.30;7.63;;;;;;;17.21;100.00;99504.75;6133757;23;20188;-89
2023/10/12 18:42:11;;;;;;;9.67;7.90;;;;;;;17.23;100.00;99507.19;6131555;23;20170;-89
2023/10/12 18:44:45;;;;;;;8.43;7.57;;;;;;;17.21;100.00;99510.19;6130450;23;20174;-89
2023/10/12 18:47:17;;;;;;;11.10;7.70;;;;;;;17.21;100.00;99509.38;6131530;23;20166;-89
2023/10/12 18:49:45;;;;;;;10.43;8.30;;;;;;;17.20;100.00;99505.03;6106617;23;20254;-88
2023/10/12 18:52:37;;;;;;;8.00;7.30;;;;;;;17.17;100.00;99506.34;6115683;23;20189;-89
2023/10/12 18:55:10;;;;;;;8.87;7.70;;;;;;;17.17;100.00;99517.19;6131625;23;20177;-88
2023/10/12 18:57:41;;;;;;;8.73;7.73;;;;;;;17.14;100.00;99517.72;6106767;23;20163;-88
2023/10/12 19:00:15;;;;;;;9.23;7.57;;;;;;;17.11;100.00;99515.56;6108240;23;20179;-89
2023/10/12 19:02:45;;;;;;;8.37;7.27;;;;;;;17.06;100.00;99527.16;6154812;23;20489;-89
2023/10/12 19:05:13;;;;;;;8.33;7.40;;;;;;;17.01;100.00;99516.31;6130791;23;20228;-89
2023/10/12 19:07:44;;;;;;;9.70;8.17;;;;;;;16.98;100.00;99526.88;6130723;23;20254;-89
2023/10/12 19:10:13;;;;;;;9.97;7.87;;;;;;;16.96;100.00;99523.59;6158936;23;20277;-89
2023/10/12 19:12:45;;;;;;;8.30;7.40;;;;;;;16.92;100.00;99528.72;6161885;23;20238;-89
2023/10/12 19:15:30;;;;;;;8.60;7.13;;;;;;;16.89;100.00;99531.16;6161392;23;20171;-89
2023/10/12 19:17:58;;;;;;;8.17;7.37;;;;;;;16.86;100.00;99532.47;6161415;23;20203;-90
2023/10/12 19:20:27;;;;;;;9.17;7.23;;;;;;;16.83;100.00;99538.41;6112186;23;20177;-89
2023/10/12 19:22:59;;;;;;;8.87;7.47;;;;;;;16.82;100.00;99541.38;6111545;23;20165;-89
2023/10/12 19:25:26;;;;;;;8.37;7.57;;;;;;;16.74;100.00;99526.47;6134431;23;20261;-90
2023/10/12 19:27:56;;;;;;;8.17;7.37;;;;;;;16.64;100.00;99535.34;6160140;23;20229;-90
2023/10/12 19:30:25;;;;;;;8.73;7.93;;;;;;;16.60;100.00;99538.81;6111194;23;20168;-90
2023/10/12 19:33:00;;;;;;;8.27;7.40;;;;;;;16.57;100.00;99542.81;6112290;23;20202;-89
2023/10/12 19:35:30;;;;;;;11.57;8.20;;;;;;;16.55;100.00;99542.28;6110239;23;20238;-90
2023/10/12 19:38:01;;;;;;;11.90;8.00;;;;;;;16.53;100.00;99535.50;6109813;23;20640;-89
2023/10/12 19:40:32;;;;;;;9.63;8.40;;;;;;;16.54;100.00;99539.81;6157431;23;20171;-89
2023/10/12 19:43:04;;;;;;;9.70;8.30;;;;;;;16.55;100.00;99533.34;6135283;23;20604;-90
2023/10/12 19:45:41;;;;;;;10.40;8.57;;;;;;;16.56;100.00;99526.88;6134665;23;20257;-90
2023/10/12 19:48:15;;;;;;;9.63;8.63;;;;;;;16.58;100.00;99519.31;6109792;23;20192;-89
2023/10/12 19:50:53;;;;;;;9.70;8.63;;;;;;;16.59;100.00;99512.84;6158989;23;20644;-89
2023/10/12 19:53:21;;;;;;;9.50;8.60;;;;;;;16.60;100.00;99496.38;6134678;23;20269;-89
2023/10/12 19:55:53;;;;;;;10.27;9.27;;;;;;;16.63;100.00;99506.66;6109035;23;20254;-89
2023/10/12 19:58:22;;;;;;;10.67;8.90;;;;;;;16.67;100.00;99501.53;6134533;23;20207;-88
2023/10/12 20:00:54;;;;;;;11.07;9.10;;;;;;;16.70;100.00;99499.09;6110048;23;20170;-89